Gilbert, AZ (85233)

7:28 PM MST on August 28, 2014 (GMT -0700)
Val vista & Chandler Blvd | Change Station
CLOSE
Current Station
Personal Weather Station
Location: Gilbert, AZ
Elevation: 1220 ft
Nearby Weather Stations

Elev 1220 ft 33.35 °N, 111.81 °W | Updated 8 minutes ago

Clear
Clear
97.3 °F
Feels Like 93 °F
N
0.0
Wind Variable Wind from West
Gusts 5.0 mph

Today
High -- | Low -- °F
--% Chance of Precip.
Yesterday
High -- | Low -- °F
Precip. -- in
5:58 AM 6:57 PM
Waxing Crescent, 11% visible
Pressure 29.80 in
Visibility 40.0 miles
Clouds Clear
Heat Index 93 °F
Dew Point 42 °F
Humidity 15%
Rainfall 0.00 in
Snow Depth Not available.
UV 0 out of 12
Pollen 5.70 out of 12
Ozone Moderate
PM2.5 Good
Flu Activity Not available.
METAR KCHD 290147Z 22009KT 40SM SKC 38/08 A2980

More Conditions Fewer Conditions

Pressure 29.80 in
Visibility 40.0 miles
Clouds Clear
Heat Index 93 °F
Dew Point 42 °F
Humidity 15%
Rainfall 0.00 in
Snow Depth Not available.
UV 0 out of 12
Pollen 5.70 out of 12
Ozone Moderate
PM2.5 Good
Flu Activity Not available.
METAR KCHD 290147Z 22009KT 40SM SKC 38/08 A2980

More Conditions Fewer Conditions

10-Day Weather Forecast

Almanac

Astronomy

Aug. 28, 2014 Rise Set
Actual Time 5:58 AM MST 6:57 PM MST
Civil Twilight 5:33 AM MST 7:22 PM MST
Nautical Twilight 5:03 AM MST 7:53 PM MST
Astronomical Twilight 4:31 AM MST 8:24 PM MST
Moon 8:43 AM MST (8/28) 8:35 PM MST (8/28)
Length of Visible Light 13h 49m
Length of Day
12h 58m
Tomorrow will be 1m 58s shorter.
Waxing Crescent, 11% of the Moon is Illuminated
Today
Waxing Crescent
Sep 2
First Quarter
Sep 8
Full
Sep 15
Last Quarter
Sep 24
New

Today's Extremes

State Highs State Lows

Community

WunderPhotos

Upload Photos

1,748,124 photos uploaded!

Nearby

Air Quality

  Air Quality AQ Index Pollutant
Yesterday Good
OZONE
Yesterday Good
PM10
Current Moderate
OZONE
Current Good
PM2.5
Thursday Moderate
OZONE
Thursday Good
PM10
Thursday Good
CO
Friday Moderate
OZONE
Friday Good
PM10
Friday Good
CO
Saturday Moderate
OZONE
Saturday Good
PM10
Saturday Good
CO

Snow Depth

Station Depth Elevation
Beaver Head 3 in 7990 ft
Snowslide Canyon 0 in 9730 ft

Earthquake Activity

City Distance Mag. Time & Date
No recent earthquake activity has been reported nearby.
Minimum magnitude displayed is 2.5.

Coastal Water Temperatures

Place Temperature
No Stations Reporting

Nearby Weather Stations